Dyess AFB, Texas
Current Conditions -  °F | °C
As of 9:58 AM on Friday 31 Oct 2014 (Local Time) from KDYS Reporting Station
Clear Clear  
Wind Chill: 57°   Ceiling: Unl
Heat Index: 57°   Visibility: 10mi
Dew Point: 37°   Wind: 13mph
Humidity: 48%   Direction: 40°NE
Pressure: 30.39"   Gusts: 21mph
Location:  32.42°N, 99.82°W
Report Text: KDYS 311458Z AUTO 04011G18KT 10SM CLR 14/03 A3039 RMK AO2 SLP266 T01380029 52023 $
Loading
Personal Weather Stations






























Interactive Weather Map
Tropical Storm Tracking
New forecast layout! Learn more

10-Day Weather Forecast

Advertisements
Track Severe Weather on mobile